Time,TemperatureF,DewpointF,PressureIn,WindDirection,WindDirectionDegrees,WindSpeedMPH,WindSpeedGustMPH,Humidity,HourlyPrecipIn,Conditions,Clouds,dailyrainin,SolarRadiationWatts/m^2,SoftwareType,DateUTC
2013-03-01 00:00:00,39.9,33.3,31.25,SSE,155,3.0,6.0,77,0.00,,,0.00,0.00,VWS V14.00,2013-03-01 07:00:00,
2013-03-01 00:01:00,39.7,33.4,31.25,SSE,155,4.0,6.0,78,0.00,,,0.00,0.00,VWS V14.00,2013-03-01 07:01:00,
2013-03-01 00:06:00,40.0,33.4,31.24,SSE,155,2.0,5.0,77,0.00,,,0.00,0.00,VWS V14.00,2013-03-01 07:06:00,
2013-03-01 00:11:00,40.2,33.6,31.24,SSE,154,4.0,7.0,77,0.00,,,0.00,0.00,VWS V14.00,2013-03-01 07:11:00,
2013-03-01 00:15:00,40.4,33.5,31.24,SSE,150,4.0,7.0,76,0.00,,,0.00,0.00,VWS V14.00,2013-03-01 07:15:00,
2013-03-01 00:16:00,40.3,33.3,31.24,SSE,156,5.0,7.0,76,0.00,,,0.00,0.00,VWS V14.00,2013-03-01 07:16:00,
2013-03-01 00:21:00,40.5,33.5,31.24,SSE,150,2.0,5.0,76,0.00,,,0.00,0.00,VWS V14.00,2013-03-01 07:21:00,
2013-03-01 00:26:00,40.4,33.5,31.24,SSE,150,0.0,5.0,76,0.00,,,0.00,0.00,VWS V14.00,2013-03-01 07:26:00,
2013-03-01 00:30:00,40.4,33.1,31.24,SSE,166,3.0,7.0,75,0.00,,,0.00,0.00,VWS V14.00,2013-03-01 07:30:00,
2013-03-01 00:31:00,40.4,33.1,31.24,SSE,161,6.0,6.0,75,0.00,,,0.00,0.00,VWS V14.00,2013-03-01 07:31:00,
2013-03-01 00:36:00,40.4,33.1,31.25,SSE,153,3.0,5.0,75,0.00,,,0.00,0.00,VWS V14.00,2013-03-01 07:36:00,
2013-03-01 00:41:00,40.5,33.2,31.26,NNW,346,5.0,6.0,75,0.00,,,0.00,0.00,VWS V14.00,2013-03-01 07:41:00,
2013-03-01 00:45:00,39.5,32.9,31.26,North,350,1.0,6.0,77,0.00,,,0.00,0.00,VWS V14.00,2013-03-01 07:45:00,
2013-03-01 00:46:00,39.8,32.9,31.26,North,360,4.0,6.0,76,0.00,,,0.00,0.00,VWS V14.00,2013-03-01 07:46:00,
2013-03-01 00:51:00,39.3,32.7,31.26,North,349,0.0,3.0,77,0.00,,,0.00,0.00,VWS V14.00,2013-03-01 07:51:00,
2013-03-01 00:56:00,39.2,32.6,31.26,North,350,0.0,3.0,77,0.00,,,0.00,0.00,VWS V14.00,2013-03-01 07:56:00,
2013-03-01 01:00:00,38.8,32.2,31.27,North,355,0.0,6.0,77,0.00,,,0.00,0.00,VWS V14.00,2013-03-01 08:00:00,
2013-03-01 01:01:00,38.9,32.6,31.26,North,355,0.0,6.0,78,0.00,,,0.00,0.00,VWS V14.00,2013-03-01 08:01:00,
2013-03-01 01:06:00,38.7,32.4,31.26,North,355,0.0,0.0,78,0.00,,,0.00,0.00,VWS V14.00,2013-03-01 08:06:00,
2013-03-01 01:11:00,38.3,32.4,31.26,North,355,1.0,4.0,79,0.00,,,0.00,0.00,VWS V14.00,2013-03-01 08:11:00,
2013-03-01 01:15:00,37.8,32.2,31.26,North,355,0.0,4.0,80,0.00,,,0.00,0.00,VWS V14.00,2013-03-01 08:15:00,
2013-03-01 01:16:00,37.9,32.0,31.26,North,355,0.0,4.0,79,0.00,,,0.00,0.00,VWS V14.00,2013-03-01 08:16:00,
2013-03-01 01:21:00,37.7,32.1,31.26,North,355,0.0,0.0,80,0.00,,,0.00,0.00,VWS V14.00,2013-03-01 08:21:00,
2013-03-01 01:26:00,37.4,31.8,31.26,WNW,288,0.0,6.0,80,0.00,,,0.00,0.00,VWS V14.00,2013-03-01 08:26:00,
2013-03-01 01:30:00,36.7,31.4,31.28,NNE,18,3.0,6.0,81,0.00,,,0.00,0.00,VWS V14.00,2013-03-01 08:30:00,
2013-03-01 01:31:00,37.0,31.7,31.28,NNE,22,5.0,6.0,81,0.00,,,0.00,0.00,VWS V14.00,2013-03-01 08:31:00,
2013-03-01 01:36:00,36.5,31.5,31.28,NNE,18,0.0,3.0,82,0.00,,,0.00,0.00,VWS V14.00,2013-03-01 08:36:00,
2013-03-01 01:41:00,36.2,31.5,31.28,NNE,18,0.0,3.0,83,0.00,,,0.00,0.00,VWS V14.00,2013-03-01 08:41:00,
2013-03-01 01:45:00,35.8,31.5,31.28,NNE,18,0.0,3.0,84,0.00,,,0.00,0.00,VWS V14.00,2013-03-01 08:45:00,
2013-03-01 01:46:00,35.9,31.2,31.28,NNE,18,0.0,3.0,83,0.00,,,0.00,0.00,VWS V14.00,2013-03-01 08:46:00,
2013-03-01 01:51:00,35.7,31.4,31.28,NNE,18,0.0,0.0,84,0.00,,,0.00,0.00,VWS V14.00,2013-03-01 08:51:00,
2013-03-01 01:56:00,35.6,31.5,31.29,NNE,18,1.0,2.0,85,0.00,,,0.00,0.00,VWS V14.00,2013-03-01 08:56:00,
2013-03-01 02:00:00,35.4,31.4,31.29,NNE,18,0.0,4.0,85,0.00,,,0.00,0.00,VWS V14.00,2013-03-01 09:00:00,
2013-03-01 02:01:00,35.5,31.5,31.30,NNE,18,2.0,4.0,85,0.00,,,0.00,0.00,VWS V14.00,2013-03-01 09:01:00,
2013-03-01 02:06:00,35.3,31.2,31.27,NNE,18,0.0,0.0,85,0.00,,,0.00,0.00,VWS V14.00,2013-03-01 09:06:00,
2013-03-01 02:11:00,35.3,31.2,31.27,NNE,18,0.0,0.0,85,0.00,,,0.00,0.00,VWS V14.00,2013-03-01 09:11:00,
2013-03-01 02:15:00,35.2,31.4,31.27,NNE,18,2.0,2.0,86,0.00,,,0.00,0.00,VWS V14.00,2013-03-01 09:15:00,
2013-03-01 02:16:00,35.2,31.4,31.27,NNE,18,0.0,0.0,86,0.00,,,0.00,0.00,VWS V14.00,2013-03-01 09:16:00,
2013-03-01 02:21:00,35.1,31.3,31.27,NNE,18,1.0,2.0,86,0.00,,,0.00,0.00,VWS V14.00,2013-03-01 09:21:00,
2013-03-01 02:26:00,35.1,31.3,31.27,WSW,256,0.0,5.0,86,0.00,,,0.00,0.00,VWS V14.00,2013-03-01 09:26:00,
2013-03-01 02:30:00,35.1,31.6,31.28,WSW,256,0.0,5.0,87,0.00,,,0.00,0.00,VWS V14.00,2013-03-01 09:30:00,
2013-03-01 02:31:00,35.1,31.3,31.28,WSW,257,3.0,5.0,86,0.00,,,0.00,0.00,VWS V14.00,2013-03-01 09:31:00,
2013-03-01 02:36:00,35.1,31.6,31.27,WSW,257,0.0,0.0,87,0.00,,,0.00,0.00,VWS V14.00,2013-03-01 09:36:00,
2013-03-01 02:41:00,35.1,31.6,31.28,WSW,257,1.0,3.0,87,0.00,,,0.00,0.00,VWS V14.00,2013-03-01 09:41:00,
2013-03-01 02:45:00,35.0,31.2,31.28,WSW,257,1.0,3.0,86,0.00,,,0.00,0.00,VWS V14.00,2013-03-01 09:45:00,
2013-03-01 02:46:00,35.0,31.2,31.28,WSW,257,0.0,3.0,86,0.00,,,0.00,0.00,VWS V14.00,2013-03-01 09:46:00,
2013-03-01 02:51:00,35.0,31.5,31.28,WSW,257,0.0,2.0,87,0.00,,,0.00,0.00,VWS V14.00,2013-03-01 09:51:00,
2013-03-01 02:56:00,35.0,31.5,31.28,WSW,257,0.0,2.0,87,0.00,,,0.00,0.00,VWS V14.00,2013-03-01 09:56:00,
2013-03-01 03:00:00,35.0,31.5,31.28,WSW,257,0.0,2.0,87,0.00,,,0.00,0.00,VWS V14.00,2013-03-01 10:00:00,
2013-03-01 03:01:00,35.0,31.5,31.28,WSW,256,0.0,2.0,87,0.00,,,0.00,0.00,VWS V14.00,2013-03-01 10:01:00,
2013-03-01 03:06:00,35.0,31.5,31.29,WSW,257,0.0,0.0,87,0.00,,,0.00,0.00,VWS V14.00,2013-03-01 10:06:00,
2013-03-01 03:11:00,35.0,31.5,31.29,WSW,257,0.0,0.0,87,0.00,,,0.00,0.00,VWS V14.00,2013-03-01 10:11:00,
2013-03-01 03:15:00,35.0,31.5,31.29,WSW,257,0.0,2.0,87,0.00,,,0.00,0.00,VWS V14.00,2013-03-01 10:15:00,
2013-03-01 03:16:00,35.0,31.5,31.29,WSW,256,0.0,2.0,87,0.00,,,0.00,0.00,VWS V14.00,2013-03-01 10:16:00,
2013-03-01 03:21:00,35.0,31.5,31.29,WSW,257,0.0,0.0,87,0.00,,,0.00,0.00,VWS V14.00,2013-03-01 10:21:00,
2013-03-01 03:26:00,35.0,31.5,31.29,WSW,257,1.0,2.0,87,0.00,,,0.00,0.00,VWS V14.00,2013-03-01 10:26:00,
2013-03-01 03:30:00,35.0,31.5,31.29,WSW,257,0.0,2.0,87,0.00,,,0.00,0.00,VWS V14.00,2013-03-01 10:30:00,
2013-03-01 03:31:00,35.0,31.5,31.29,WSW,257,0.0,2.0,87,0.00,,,0.00,0.00,VWS V14.00,2013-03-01 10:31:00,
2013-03-01 03:36:00,35.0,31.5,31.29,WSW,257,0.0,0.0,87,0.00,,,0.00,0.00,VWS V14.00,2013-03-01 10:36:00,
2013-03-01 03:41:00,34.9,31.4,31.29,WSW,256,0.0,0.0,87,0.00,,,0.00,0.00,VWS V14.00,2013-03-01 10:41:00,
2013-03-01 03:45:00,34.8,31.3,31.28,WSW,256,1.0,2.0,87,0.00,,,0.00,0.00,VWS V14.00,2013-03-01 10:45:00,
2013-03-01 03:46:00,34.9,31.4,31.29,WSW,256,1.0,2.0,87,0.00,,,0.00,0.00,VWS V14.00,2013-03-01 10:46:00,
2013-03-01 03:51:00,34.8,31.3,31.29,WSW,256,0.0,1.0,87,0.00,,,0.00,0.00,VWS V14.00,2013-03-01 10:51:00,
2013-03-01 03:56:00,34.7,31.2,31.29,WSW,257,0.0,1.0,87,0.00,,,0.00,0.00,VWS V14.00,2013-03-01 10:56:00,
2013-03-01 04:00:00,34.6,31.1,31.29,WSW,256,1.0,2.0,87,0.00,,,0.00,0.00,VWS V14.00,2013-03-01 11:00:00,
2013-03-01 04:01:00,34.6,31.1,31.29,WSW,256,0.0,1.0,87,0.00,,,0.00,0.00,VWS V14.00,2013-03-01 11:01:00,
2013-03-01 04:06:00,34.7,31.5,31.28,WSW,257,0.0,2.0,88,0.00,,,0.00,0.00,VWS V14.00,2013-03-01 11:06:00,
2013-03-01 04:11:00,34.6,31.4,31.28,WSW,257,0.0,2.0,88,0.00,,,0.00,0.00,VWS V14.00,2013-03-01 11:11:00,
2013-03-01 04:15:00,34.8,31.6,31.27,WSW,256,1.0,2.0,88,0.00,,,0.00,0.00,VWS V14.00,2013-03-01 11:15:00,
2013-03-01 04:16:00,34.7,31.5,31.28,WSW,257,1.0,2.0,88,0.00,,,0.00,0.00,VWS V14.00,2013-03-01 11:16:00,
2013-03-01 04:21:00,34.9,31.7,31.28,WSW,257,0.0,3.0,88,0.00,,,0.00,0.00,VWS V14.00,2013-03-01 11:21:00,
2013-03-01 04:26:00,35.0,31.8,31.28,WSW,257,0.0,3.0,88,0.00,,,0.00,0.00,VWS V14.00,2013-03-01 11:26:00,
2013-03-01 04:30:00,35.1,32.2,31.28,WSW,257,1.0,3.0,89,0.00,,,0.00,0.00,VWS V14.00,2013-03-01 11:30:00,
2013-03-01 04:31:00,35.0,31.8,31.28,WSW,256,2.0,3.0,88,0.00,,,0.00,0.00,VWS V14.00,2013-03-01 11:31:00,
2013-03-01 04:36:00,35.2,32.3,31.28,WSW,257,4.0,4.0,89,0.00,,,0.00,0.00,VWS V14.00,2013-03-01 11:36:00,
2013-03-01 04:41:00,35.3,32.4,31.28,WSW,257,0.0,4.0,89,0.00,,,0.00,0.00,VWS V14.00,2013-03-01 11:41:00,
2013-03-01 04:45:00,35.3,32.1,31.29,WSW,257,2.0,4.0,88,0.00,,,0.00,0.00,VWS V14.00,2013-03-01 11:45:00,
2013-03-01 04:46:00,35.4,32.2,31.28,WSW,256,2.0,4.0,88,0.00,,,0.00,0.00,VWS V14.00,2013-03-01 11:46:00,
2013-03-01 04:52:00,35.3,32.1,31.29,WSW,257,0.0,2.0,88,0.00,,,0.00,0.00,VWS V14.00,2013-03-01 11:52:00,
2013-03-01 04:56:00,35.3,32.1,31.28,WSW,256,0.0,2.0,88,0.00,,,0.00,0.00,VWS V14.00,2013-03-01 11:56:00,
2013-03-01 05:00:00,35.2,32.0,31.28,WSW,257,0.0,2.0,88,0.00,,,0.00,0.00,VWS V14.00,2013-03-01 12:00:00,
2013-03-01 05:02:00,35.2,32.0,31.28,WSW,256,0.0,2.0,88,0.00,,,0.00,0.00,VWS V14.00,2013-03-01 12:02:00,
2013-03-01 05:06:00,35.2,32.0,31.30,WSW,257,2.0,2.0,88,0.00,,,0.00,0.00,VWS V14.00,2013-03-01 12:06:00,
2013-03-01 05:12:00,35.2,32.0,31.31,WSW,257,1.0,3.0,88,0.00,,,0.00,0.00,VWS V14.00,2013-03-01 12:12:00,
2013-03-01 05:15:00,35.2,32.3,31.30,WSW,256,0.0,3.0,89,0.00,,,0.00,0.00,VWS V14.00,2013-03-01 12:15:00,
2013-03-01 05:17:00,35.1,31.9,31.30,WSW,257,0.0,3.0,88,0.00,,,0.00,0.00,VWS V14.00,2013-03-01 12:17:00,
2013-03-01 05:22:00,35.2,32.3,31.31,WSW,256,3.0,3.0,89,0.00,,,0.00,0.00,VWS V14.00,2013-03-01 12:22:00,
2013-03-01 05:27:00,35.3,32.4,31.31,WSW,257,0.0,4.0,89,0.00,,,0.00,0.00,VWS V14.00,2013-03-01 12:27:00,
2013-03-01 05:30:00,35.2,32.0,31.31,WSW,257,0.0,4.0,88,0.00,,,0.00,0.00,VWS V14.00,2013-03-01 12:30:00,
2013-03-01 05:32:00,35.3,32.1,31.31,WSW,256,0.0,4.0,88,0.00,,,0.00,0.00,VWS V14.00,2013-03-01 12:32:00,
2013-03-01 05:37:00,35.2,32.0,31.31,WSW,256,0.0,0.0,88,0.00,,,0.00,0.00,VWS V14.00,2013-03-01 12:37:00,
2013-03-01 05:41:00,35.1,31.9,31.31,WSW,257,0.0,3.0,88,0.00,,,0.00,0.00,VWS V14.00,2013-03-01 12:41:00,
2013-03-01 05:45:00,35.0,31.8,31.31,WSW,257,0.0,3.0,88,0.00,,,0.00,0.00,VWS V14.00,2013-03-01 12:45:00,
2013-03-01 05:46:00,35.0,31.8,31.31,WSW,257,0.0,3.0,88,0.00,,,0.00,0.00,VWS V14.00,2013-03-01 12:46:00,
2013-03-01 05:51:00,35.0,31.8,31.31,WSW,257,0.0,1.0,88,0.00,,,0.00,0.00,VWS V14.00,2013-03-01 12:51:00,
2013-03-01 05:56:00,35.0,32.1,31.30,WSW,257,0.0,1.0,89,0.00,,,0.00,0.00,VWS V14.00,2013-03-01 12:56:00,
2013-03-01 06:00:00,35.0,32.1,31.30,WSW,257,0.0,1.0,89,0.00,,,0.00,0.00,VWS V14.00,2013-03-01 13:00:00,
2013-03-01 06:02:00,35.0,32.1,31.30,WSW,257,0.0,1.0,89,0.00,,,0.00,0.00,VWS V14.00,2013-03-01 13:02:00,
2013-03-01 06:07:00,35.1,32.2,31.31,WSW,256,0.0,2.0,89,0.00,,,0.00,0.00,VWS V14.00,2013-03-01 13:07:00,
2013-03-01 06:12:00,35.1,32.2,31.31,WSW,256,0.0,5.0,89,0.00,,,0.00,0.00,VWS V14.00,2013-03-01 13:12:00,
2013-03-01 06:15:00,35.2,32.3,31.29,WSW,256,0.0,5.0,89,0.00,,,0.00,0.00,VWS V14.00,2013-03-01 13:15:00,
2013-03-01 06:17:00,35.2,32.3,31.29,WSW,257,0.0,5.0,89,0.00,,,0.00,0.00,VWS V14.00,2013-03-01 13:17:00,
2013-03-01 06:22:00,35.2,32.3,31.29,WSW,257,1.0,3.0,89,0.00,,,0.00,0.00,VWS V14.00,2013-03-01 13:22:00,
2013-03-01 06:27:00,35.0,31.8,31.29,WSW,257,0.0,3.0,88,0.00,,,0.00,0.00,VWS V14.00,2013-03-01 13:27:00,
2013-03-01 06:30:00,34.8,31.6,31.29,WNW,290,0.0,6.0,88,0.00,,,0.00,0.00,VWS V14.00,2013-03-01 13:30:00,
2013-03-01 06:32:00,34.9,31.7,31.30,WNW,290,0.0,6.0,88,0.00,,,0.00,0.00,VWS V14.00,2013-03-01 13:32:00,
2013-03-01 06:37:00,34.7,31.5,31.29,WNW,290,0.0,1.0,88,0.00,,,0.00,0.00,VWS V14.00,2013-03-01 13:37:00,
2013-03-01 06:42:00,34.6,31.7,31.29,WNW,300,3.0,6.0,89,0.00,,,0.00,0.00,VWS V14.00,2013-03-01 13:42:00,
2013-03-01 06:45:00,34.4,31.5,31.31,NW,306,0.0,6.0,89,0.00,,,0.00,0.00,VWS V14.00,2013-03-01 13:45:00,
2013-03-01 06:47:00,34.4,31.5,31.30,NW,306,3.0,6.0,89,0.00,,,0.00,0.00,VWS V14.00,2013-03-01 13:47:00,
2013-03-01 06:52:00,34.4,31.5,31.31,NW,306,0.0,1.0,89,0.00,,,0.00,0.00,VWS V14.00,2013-03-01 13:52:00,
2013-03-01 06:57:00,34.4,31.5,31.31,NW,306,0.0,1.0,89,0.00,,,0.00,0.00,VWS V14.00,2013-03-01 13:57:00,
2013-03-01 07:00:00,34.4,31.5,31.30,NNW,345,0.0,5.0,89,0.00,,,0.00,0.00,VWS V14.00,2013-03-01 14:00:00,
2013-03-01 07:02:00,34.4,31.5,31.31,NNW,345,1.0,5.0,89,0.00,,,0.00,0.00,VWS V14.00,2013-03-01 14:02:00,
2013-03-01 07:07:00,34.4,31.5,31.31,NNW,345,0.0,0.0,89,0.00,,,0.00,0.00,VWS V14.00,2013-03-01 14:07:00,
2013-03-01 07:12:00,34.4,31.8,31.31,NNW,345,0.0,0.0,90,0.00,,,0.00,0.00,VWS V14.00,2013-03-01 14:12:00,
2013-03-01 07:15:00,34.4,31.8,31.32,NNW,345,0.0,4.0,90,0.00,,,0.00,0.00,VWS V14.00,2013-03-01 14:15:00,
2013-03-01 07:17:00,34.4,31.5,31.32,NNW,345,2.0,4.0,89,0.00,,,0.00,0.00,VWS V14.00,2013-03-01 14:17:00,
2013-03-01 07:22:00,34.4,31.5,31.32,NNW,345,0.0,0.0,89,0.00,,,0.00,0.00,VWS V14.00,2013-03-01 14:22:00,
2013-03-01 07:27:00,34.4,31.8,31.33,NNW,345,5.0,5.0,90,0.00,,,0.00,0.00,VWS V14.00,2013-03-01 14:27:00,
2013-03-01 07:30:00,34.4,31.8,31.32,North,360,1.0,7.0,90,0.00,,,0.00,0.00,VWS V14.00,2013-03-01 14:30:00,
2013-03-01 07:32:00,34.4,31.8,31.32,North,5,0.0,7.0,90,0.00,,,0.00,0.00,VWS V14.00,2013-03-01 14:32:00,
2013-03-01 07:37:00,34.4,31.8,31.33,North,5,3.0,3.0,90,0.00,,,0.00,0.00,VWS V14.00,2013-03-01 14:37:00,
2013-03-01 07:42:00,34.4,31.8,31.32,North,360,0.0,3.0,90,0.00,,,0.00,5.00,VWS V14.00,2013-03-01 14:42:00,
2013-03-01 07:45:00,34.7,32.1,31.31,North,5,0.0,3.0,90,0.00,,,0.00,7.00,VWS V14.00,2013-03-01 14:45:00,
2013-03-01 07:47:00,34.7,32.1,31.31,North,5,0.0,3.0,90,0.00,,,0.00,7.00,VWS V14.00,2013-03-01 14:47:00,
2013-03-01 07:52:00,34.8,32.2,31.32,North,360,0.0,0.0,90,0.00,,,0.00,12.00,VWS V14.00,2013-03-01 14:52:00,
2013-03-01 07:57:00,35.0,32.4,31.32,North,5,0.0,0.0,90,0.00,,,0.00,19.00,VWS V14.00,2013-03-01 14:57:00,
2013-03-01 08:00:00,35.2,32.6,31.32,North,360,2.0,5.0,90,0.00,,,0.00,18.00,VWS V14.00,2013-03-01 15:00:00,
2013-03-01 08:02:00,35.1,32.5,31.32,North,5,4.0,5.0,90,0.00,,,0.00,21.00,VWS V14.00,2013-03-01 15:02:00,
2013-03-01 08:07:00,35.1,32.5,31.32,North,360,1.0,3.0,90,0.00,,,0.00,16.00,VWS V14.00,2013-03-01 15:07:00,
2013-03-01 08:12:00,35.1,32.5,31.32,North,5,0.0,3.0,90,0.00,,,0.00,19.00,VWS V14.00,2013-03-01 15:12:00,
2013-03-01 08:15:00,35.3,32.7,31.32,North,5,0.0,3.0,90,0.00,,,0.00,26.00,VWS V14.00,2013-03-01 15:15:00,
2013-03-01 08:17:00,35.2,32.6,31.32,North,5,0.0,3.0,90,0.00,,,0.00,25.00,VWS V14.00,2013-03-01 15:17:00,
2013-03-01 08:22:00,35.3,32.7,31.33,North,5,3.0,3.0,90,0.00,,,0.00,26.00,VWS V14.00,2013-03-01 15:22:00,
2013-03-01 08:27:00,35.3,32.7,31.32,North,5,2.0,3.0,90,0.00,,,0.00,35.00,VWS V14.00,2013-03-01 15:27:00,
2013-03-01 08:30:00,35.4,32.8,31.32,North,5,1.0,3.0,90,0.00,,,0.00,30.00,VWS V14.00,2013-03-01 15:30:00,
2013-03-01 08:32:00,35.4,32.8,31.32,North,5,0.0,3.0,90,0.00,,,0.00,33.00,VWS V14.00,2013-03-01 15:32:00,
2013-03-01 08:37:00,35.7,33.1,31.32,North,360,1.0,2.0,90,0.00,,,0.00,35.00,VWS V14.00,2013-03-01 15:37:00,
2013-03-01 08:42:00,36.2,33.6,31.32,North,5,2.0,3.0,90,0.00,,,0.00,46.00,VWS V14.00,2013-03-01 15:42:00,
2013-03-01 08:45:00,37.1,34.7,31.31,NNE,22,0.0,3.0,91,0.00,,,0.00,67.00,VWS V14.00,2013-03-01 15:45:00,
2013-03-01 08:47:00,36.8,34.4,31.31,NNE,21,3.0,3.0,91,0.00,,,0.00,56.00,VWS V14.00,2013-03-01 15:47:00,
2013-03-01 08:52:00,37.3,34.6,31.32,NW,310,3.0,3.0,90,0.00,,,0.00,53.00,VWS V14.00,2013-03-01 15:52:00,
2013-03-01 08:57:00,37.7,35.0,31.31,WSW,244,0.0,5.0,90,0.00,,,0.00,63.00,VWS V14.00,2013-03-01 15:57:00,
2013-03-01 09:00:00,38.3,35.3,31.30,SE,137,2.0,5.0,89,0.00,,,0.00,86.00,VWS V14.00,2013-03-01 16:00:00,
2013-03-01 09:02:00,38.1,35.4,31.31,SSE,150,4.0,5.0,90,0.00,,,0.00,76.00,VWS V14.00,2013-03-01 16:02:00,
2013-03-01 09:07:00,38.7,35.7,31.29,SE,138,4.0,5.0,89,0.00,,,0.00,79.00,VWS V14.00,2013-03-01 16:07:00,
2013-03-01 09:12:00,39.6,36.3,31.29,SE,143,2.0,8.0,88,0.00,,,0.00,90.00,VWS V14.00,2013-03-01 16:12:00,
2013-03-01 09:15:00,40.6,36.5,31.28,South,178,3.0,8.0,85,0.00,,,0.00,77.00,VWS V14.00,2013-03-01 16:15:00,
2013-03-01 09:17:00,40.3,36.5,31.29,SE,136,7.0,8.0,86,0.00,,,0.00,74.00,VWS V14.00,2013-03-01 16:17:00,
2013-03-01 09:22:00,41.1,36.6,31.28,South,175,0.0,4.0,84,0.00,,,0.00,105.00,VWS V14.00,2013-03-01 16:22:00,
2013-03-01 09:27:00,41.6,36.8,31.28,SW,234,0.0,5.0,83,0.00,,,0.00,128.00,VWS V14.00,2013-03-01 16:27:00,
2013-03-01 09:30:00,42.3,36.9,31.28,SSW,192,0.0,5.0,81,0.00,,,0.00,109.00,VWS V14.00,2013-03-01 16:30:00,
2013-03-01 09:32:00,42.1,36.7,31.28,SSW,192,2.0,5.0,81,0.00,,,0.00,128.00,VWS V14.00,2013-03-01 16:32:00,
2013-03-01 09:37:00,42.7,37.3,31.27,South,182,0.0,4.0,81,0.00,,,0.00,158.00,VWS V14.00,2013-03-01 16:37:00,
2013-03-01 09:42:00,43.3,37.6,31.27,South,182,0.0,4.0,80,0.00,,,0.00,200.00,VWS V14.00,2013-03-01 16:42:00,
2013-03-01 09:45:00,44.1,38.0,31.28,South,182,1.0,4.0,79,0.00,,,0.00,218.00,VWS V14.00,2013-03-01 16:45:00,
2013-03-01 09:47:00,43.8,37.7,31.28,South,182,0.0,4.0,79,0.00,,,0.00,221.00,VWS V14.00,2013-03-01 16:47:00,
2013-03-01 09:52:00,44.7,37.6,31.27,South,184,0.0,4.0,76,0.00,,,0.00,171.00,VWS V14.00,2013-03-01 16:52:00,
2013-03-01 09:57:00,45.7,38.2,31.27,WNW,295,2.0,7.0,75,0.00,,,0.00,167.00,VWS V14.00,2013-03-01 16:57:00,
2013-03-01 10:00:00,45.6,38.2,31.27,NNW,344,3.0,7.0,75,0.00,,,0.00,172.00,VWS V14.00,2013-03-01 17:00:00,
2013-03-01 10:02:00,45.8,38.3,31.27,NNW,344,5.0,7.0,75,0.00,,,0.00,174.00,VWS V14.00,2013-03-01 17:02:00,
2013-03-01 10:07:00,45.4,38.3,31.27,NNW,344,4.0,4.0,76,0.00,,,0.00,193.00,VWS V14.00,2013-03-01 17:07:00,
2013-03-01 10:12:00,45.5,38.4,31.26,NNW,344,2.0,5.0,76,0.00,,,0.00,211.00,VWS V14.00,2013-03-01 17:12:00,
2013-03-01 10:15:00,45.8,38.3,31.26,NNW,335,1.0,7.0,75,0.00,,,0.00,207.00,VWS V14.00,2013-03-01 17:15:00,
2013-03-01 10:17:00,45.7,38.2,31.26,NNW,335,3.0,7.0,75,0.00,,,0.00,202.00,VWS V14.00,2013-03-01 17:17:00,
2013-03-01 10:22:00,46.0,39.2,31.26,NNW,335,0.0,3.0,77,0.00,,,0.00,559.00,VWS V14.00,2013-03-01 17:22:00,
2013-03-01 10:27:00,46.6,39.1,31.26,NW,325,2.0,4.0,75,0.00,,,0.00,404.00,VWS V14.00,2013-03-01 17:27:00,
2013-03-01 10:30:00,48.0,38.0,31.26,West,259,2.0,9.0,68,0.00,,,0.00,237.00,VWS V14.00,2013-03-01 17:30:00,
2013-03-01 10:32:00,47.6,38.0,31.26,WSW,257,6.0,9.0,69,0.00,,,0.00,229.00,VWS V14.00,2013-03-01 17:32:00,
2013-03-01 10:37:00,48.5,38.4,31.26,SW,233,3.0,4.0,68,0.00,,,0.00,232.00,VWS V14.00,2013-03-01 17:37:00,
2013-03-01 10:42:00,49.5,38.6,31.26,SSW,196,4.0,10.0,66,0.00,,,0.00,302.00,VWS V14.00,2013-03-01 17:42:00,
2013-03-01 10:45:00,50.8,37.4,31.25,South,174,11.0,11.0,60,0.00,,,0.00,650.00,VWS V14.00,2013-03-01 17:45:00,
2013-03-01 10:47:00,50.6,36.8,31.25,WSW,254,0.0,11.0,59,0.00,,,0.00,258.00,VWS V14.00,2013-03-01 17:47:00,
2013-03-01 10:52:00,51.6,37.8,31.24,South,172,7.0,13.0,59,0.00,,,0.00,638.00,VWS V14.00,2013-03-01 17:52:00,
2013-03-01 10:57:00,52.5,37.7,31.24,SSE,163,3.0,14.0,57,0.00,,,0.00,519.00,VWS V14.00,2013-03-01 17:57:00,
2013-03-01 11:00:00,53.4,37.7,31.24,South,188,3.0,14.0,55,0.00,,,0.00,422.00,VWS V14.00,2013-03-01 18:00:00,
2013-03-01 11:02:00,53.2,37.9,31.24,South,187,4.0,14.0,56,0.00,,,0.00,464.00,VWS V14.00,2013-03-01 18:02:00,
2013-03-01 11:07:00,53.8,38.0,31.22,SSW,211,5.0,7.0,55,0.00,,,0.00,531.00,VWS V14.00,2013-03-01 18:07:00,
2013-03-01 11:12:00,54.5,38.2,31.22,South,178,4.0,12.0,54,0.00,,,0.00,719.00,VWS V14.00,2013-03-01 18:12:00,
2013-03-01 11:15:00,55.3,36.5,31.22,SSW,208,3.0,12.0,49,0.00,,,0.00,336.00,VWS V14.00,2013-03-01 18:15:00,
2013-03-01 11:17:00,55.3,36.5,31.22,South,183,4.0,12.0,49,0.00,,,0.00,712.00,VWS V14.00,2013-03-01 18:17:00,
2013-03-01 11:22:00,55.4,37.1,31.22,SSW,195,5.0,9.0,50,0.00,,,0.00,283.00,VWS V14.00,2013-03-01 18:22:00,
2013-03-01 11:27:00,55.1,36.3,31.22,South,182,0.0,9.0,49,0.00,,,0.00,262.00,VWS V14.00,2013-03-01 18:27:00,
2013-03-01 11:30:00,54.8,36.0,31.22,South,182,0.0,9.0,49,0.00,,,0.00,306.00,VWS V14.00,2013-03-01 18:30:00,
2013-03-01 11:32:00,54.9,36.1,31.22,South,182,0.0,9.0,49,0.00,,,0.00,306.00,VWS V14.00,2013-03-01 18:32:00,
2013-03-01 11:37:00,54.6,35.8,31.22,South,176,0.0,5.0,49,0.00,,,0.00,209.00,VWS V14.00,2013-03-01 18:37:00,
2013-03-01 11:43:00,54.4,36.7,31.22,South,173,4.0,7.0,51,0.00,,,0.00,251.00,VWS V14.00,2013-03-01 18:43:00,
2013-03-01 11:45:00,53.8,35.6,31.22,SE,142,5.0,14.0,50,0.00,,,0.00,151.00,VWS V14.00,2013-03-01 18:45:00,
2013-03-01 11:48:00,54.0,35.8,31.22,SSE,156,7.0,14.0,50,0.00,,,0.00,171.00,VWS V14.00,2013-03-01 18:48:00,
2013-03-01 11:53:00,53.5,36.3,31.22,SSE,165,6.0,10.0,52,0.00,,,0.00,172.00,VWS V14.00,2013-03-01 18:53:00,
2013-03-01 11:58:00,53.2,36.0,31.23,South,169,3.0,10.0,52,0.00,,,0.00,146.00,VWS V14.00,2013-03-01 18:58:00,
2013-03-01 12:00:00,53.0,36.8,31.23,South,169,2.0,10.0,54,0.00,,,0.00,209.00,VWS V14.00,2013-03-01 19:00:00,
2013-03-01 12:03:00,53.1,36.4,31.23,South,169,4.0,10.0,53,0.00,,,0.00,188.00,VWS V14.00,2013-03-01 19:03:00,
2013-03-01 12:08:00,53.0,36.3,31.23,SSW,205,10.0,14.0,53,0.00,,,0.00,160.00,VWS V14.00,2013-03-01 19:08:00,
2013-03-01 12:13:00,53.0,36.8,31.23,South,175,4.0,14.0,54,0.00,,,0.00,255.00,VWS V14.00,2013-03-01 19:13:00,
2013-03-01 12:15:00,53.1,36.4,31.23,South,182,1.0,14.0,53,0.00,,,0.00,195.00,VWS V14.00,2013-03-01 19:15:00,
2013-03-01 12:18:00,53.1,36.4,31.23,South,169,4.0,14.0,53,0.00,,,0.00,207.00,VWS V14.00,2013-03-01 19:18:00,
2013-03-01 12:23:00,53.2,36.0,31.23,South,188,5.0,7.0,52,0.00,,,0.00,158.00,VWS V14.00,2013-03-01 19:23:00,
2013-03-01 12:28:00,53.2,35.6,31.23,SSW,192,3.0,9.0,51,0.00,,,0.00,132.00,VWS V14.00,2013-03-01 19:28:00,
2013-03-01 12:30:00,53.1,36.0,31.23,South,180,2.0,11.0,52,0.00,,,0.00,156.00,VWS V14.00,2013-03-01 19:30:00,
2013-03-01 12:33:00,53.1,36.0,31.23,SSW,194,3.0,11.0,52,0.00,,,0.00,176.00,VWS V14.00,2013-03-01 19:33:00,
2013-03-01 12:38:00,53.0,36.3,31.23,South,171,11.0,14.0,53,0.00,,,0.00,149.00,VWS V14.00,2013-03-01 19:38:00,
2013-03-01 12:43:00,52.9,36.2,31.23,SSE,159,11.0,15.0,53,0.00,,,0.00,181.00,VWS V14.00,2013-03-01 19:43:00,
2013-03-01 12:45:00,53.0,36.3,31.23,South,191,7.0,18.0,53,0.00,,,0.00,214.00,VWS V14.00,2013-03-01 19:45:00,
2013-03-01 12:48:00,53.0,36.8,31.23,SSE,150,7.0,18.0,54,0.00,,,0.00,207.00,VWS V14.00,2013-03-01 19:48:00,
2013-03-01 12:53:00,53.0,36.3,31.23,SSE,161,7.0,18.0,53,0.00,,,0.00,199.00,VWS V14.00,2013-03-01 19:53:00,
2013-03-01 12:58:00,52.9,36.7,31.22,SSE,164,10.0,18.0,54,0.00,,,0.00,229.00,VWS V14.00,2013-03-01 19:58:00,
2013-03-01 13:00:00,52.9,36.7,31.22,SSE,168,6.0,18.0,54,0.00,,,0.00,246.00,VWS V14.00,2013-03-01 20:00:00,
2013-03-01 13:03:00,52.9,37.2,31.23,South,173,5.0,18.0,55,0.00,,,0.00,236.00,VWS V14.00,2013-03-01 20:03:00,
2013-03-01 13:08:00,53.1,36.9,31.24,South,184,9.0,13.0,54,0.00,,,0.00,232.00,VWS V14.00,2013-03-01 20:08:00,
2013-03-01 13:13:00,53.2,37.5,31.24,SW,217,10.0,13.0,55,0.00,,,0.00,272.00,VWS V14.00,2013-03-01 20:13:00,
2013-03-01 13:15:00,53.6,37.4,31.24,South,186,9.0,18.0,54,0.00,,,0.00,552.00,VWS V14.00,2013-03-01 20:15:00,
2013-03-01 13:18:00,53.5,37.3,31.24,SSE,153,14.0,18.0,54,0.00,,,0.00,652.00,VWS V14.00,2013-03-01 20:18:00,
2013-03-01 13:23:00,54.2,37.5,31.24,SSE,148,8.0,16.0,53,0.00,,,0.00,780.00,VWS V14.00,2013-03-01 20:23:00,
2013-03-01 13:28:00,55.3,37.5,31.23,SSW,192,11.0,16.0,51,0.00,,,0.00,795.00,VWS V14.00,2013-03-01 20:28:00,
2013-03-01 13:30:00,56.5,37.6,31.22,SSE,161,12.0,18.0,49,0.00,,,0.00,828.00,VWS V14.00,2013-03-01 20:30:00,
2013-03-01 13:33:00,56.4,37.5,31.22,South,170,9.0,18.0,49,0.00,,,0.00,824.00,VWS V14.00,2013-03-01 20:33:00,
2013-03-01 13:38:00,56.7,37.8,31.21,South,176,6.0,15.0,49,0.00,,,0.00,334.00,VWS V14.00,2013-03-01 20:38:00,
2013-03-01 13:43:00,56.1,37.2,31.22,SSW,196,13.0,15.0,49,0.00,,,0.00,334.00,VWS V14.00,2013-03-01 20:43:00,
2013-03-01 13:45:00,55.4,37.6,31.22,South,191,12.0,15.0,51,0.00,,,0.00,279.00,VWS V14.00,2013-03-01 20:45:00,
2013-03-01 13:48:00,55.5,37.7,31.22,SSW,193,5.0,15.0,51,0.00,,,0.00,279.00,VWS V14.00,2013-03-01 20:48:00,
2013-03-01 13:53:00,55.3,38.0,31.22,South,180,4.0,18.0,52,0.00,,,0.00,323.00,VWS V14.00,2013-03-01 20:53:00,
2013-03-01 13:58:00,55.2,37.4,31.22,SSE,155,6.0,18.0,51,0.00,,,0.00,253.00,VWS V14.00,2013-03-01 20:58:00,
2013-03-01 14:00:00,54.7,36.9,31.22,South,174,11.0,19.0,51,0.00,,,0.00,236.00,VWS V14.00,2013-03-01 21:00:00,
2013-03-01 14:03:00,54.8,37.0,31.22,SSE,155,7.0,19.0,51,0.00,,,0.00,229.00,VWS V14.00,2013-03-01 21:03:00,
2013-03-01 14:08:00,54.4,36.7,31.23,SSW,197,7.0,13.0,51,0.00,,,0.00,197.00,VWS V14.00,2013-03-01 21:08:00,
2013-03-01 14:13:00,54.1,36.9,31.22,South,169,11.0,15.0,52,0.00,,,0.00,250.00,VWS V14.00,2013-03-01 21:13:00,
2013-03-01 14:15:00,54.1,36.9,31.22,SSE,163,9.0,16.0,52,0.00,,,0.00,260.00,VWS V14.00,2013-03-01 21:15:00,
2013-03-01 14:18:00,54.1,36.9,31.22,South,173,10.0,16.0,52,0.00,,,0.00,260.00,VWS V14.00,2013-03-01 21:18:00,
2013-03-01 14:23:00,54.2,36.5,31.22,SE,145,9.0,15.0,51,0.00,,,0.00,258.00,VWS V14.00,2013-03-01 21:23:00,
2013-03-01 14:28:00,54.4,36.7,31.23,SSW,200,5.0,15.0,51,0.00,,,0.00,236.00,VWS V14.00,2013-03-01 21:28:00,
2013-03-01 14:30:00,54.4,36.2,31.22,SSE,157,6.0,15.0,50,0.00,,,0.00,216.00,VWS V14.00,2013-03-01 21:30:00,
2013-03-01 14:33:00,54.4,36.7,31.22,South,173,4.0,15.0,51,0.00,,,0.00,216.00,VWS V14.00,2013-03-01 21:33:00,
2013-03-01 14:38:00,54.4,36.7,31.23,SSE,157,6.0,13.0,51,0.00,,,0.00,188.00,VWS V14.00,2013-03-01 21:38:00,
2013-03-01 14:43:00,54.3,36.6,31.23,South,179,4.0,13.0,51,0.00,,,0.00,181.00,VWS V14.00,2013-03-01 21:43:00,
2013-03-01 14:45:00,54.2,36.5,31.23,SSW,199,5.0,13.0,51,0.00,,,0.00,162.00,VWS V14.00,2013-03-01 21:45:00,
2013-03-01 14:48:00,54.2,36.0,31.23,SSW,204,2.0,13.0,50,0.00,,,0.00,163.00,VWS V14.00,2013-03-01 21:48:00,
2013-03-01 14:53:00,54.2,36.5,31.23,SSW,196,6.0,11.0,51,0.00,,,0.00,153.00,VWS V14.00,2013-03-01 21:53:00,
2013-03-01 14:58:00,54.0,36.3,31.24,SSW,199,2.0,11.0,51,0.00,,,0.00,142.00,VWS V14.00,2013-03-01 21:58:00,
2013-03-01 15:00:00,54.0,36.3,31.24,South,171,5.0,12.0,51,0.00,,,0.00,165.00,VWS V14.00,2013-03-01 22:00:00,
2013-03-01 15:03:00,54.0,36.3,31.24,South,173,4.0,12.0,51,0.00,,,0.00,156.00,VWS V14.00,2013-03-01 22:03:00,
2013-03-01 15:08:00,54.0,36.8,31.23,SSE,153,2.0,11.0,52,0.00,,,0.00,162.00,VWS V14.00,2013-03-01 22:08:00,
2013-03-01 15:13:00,53.9,36.2,31.23,SSE,155,8.0,13.0,51,0.00,,,0.00,116.00,VWS V14.00,2013-03-01 22:13:00,
2013-03-01 15:15:00,53.8,36.1,31.23,South,171,5.0,13.0,51,0.00,,,0.00,239.00,VWS V14.00,2013-03-01 22:15:00,
2013-03-01 15:18:00,53.8,36.1,31.23,SSW,195,4.0,13.0,51,0.00,,,0.00,130.00,VWS V14.00,2013-03-01 22:18:00,
2013-03-01 15:23:00,53.9,36.7,31.23,SSE,168,10.0,14.0,52,0.00,,,0.00,137.00,VWS V14.00,2013-03-01 22:23:00,
2013-03-01 15:28:00,53.9,36.7,31.23,SSE,150,6.0,14.0,52,0.00,,,0.00,158.00,VWS V14.00,2013-03-01 22:28:00,
2013-03-01 15:30:00,53.9,36.7,31.23,SSW,198,3.0,15.0,52,0.00,,,0.00,199.00,VWS V14.00,2013-03-01 22:30:00,
2013-03-01 15:33:00,53.8,36.6,31.23,SSW,192,6.0,15.0,52,0.00,,,0.00,186.00,VWS V14.00,2013-03-01 22:33:00,
2013-03-01 15:38:00,54.0,35.8,31.23,South,189,1.0,10.0,50,0.00,,,0.00,213.00,VWS V14.00,2013-03-01 22:38:00,
2013-03-01 15:43:00,54.2,36.0,31.23,South,169,0.0,10.0,50,0.00,,,0.00,211.00,VWS V14.00,2013-03-01 22:43:00,
2013-03-01 15:45:00,54.4,36.2,31.24,SSW,192,2.0,13.0,50,0.00,,,0.00,357.00,VWS V14.00,2013-03-01 22:45:00,
2013-03-01 15:48:00,54.4,36.7,31.24,SSW,192,2.0,13.0,51,0.00,,,0.00,264.00,VWS V14.00,2013-03-01 22:48:00,
2013-03-01 15:53:00,54.6,36.3,31.23,SSW,203,3.0,10.0,50,0.00,,,0.00,260.00,VWS V14.00,2013-03-01 22:53:00,
2013-03-01 15:58:00,54.9,36.1,31.23,West,261,1.0,12.0,49,0.00,,,0.00,223.00,VWS V14.00,2013-03-01 22:58:00,
2013-03-01 16:00:00,55.0,35.7,31.23,SSW,198,2.0,12.0,48,0.00,,,0.00,179.00,VWS V14.00,2013-03-01 23:00:00,
2013-03-01 16:03:00,55.0,36.2,31.23,SSW,200,4.0,12.0,49,0.00,,,0.00,179.00,VWS V14.00,2013-03-01 23:03:00,
2013-03-01 16:08:00,55.0,36.2,31.23,SSW,192,6.0,13.0,49,0.00,,,0.00,167.00,VWS V14.00,2013-03-01 23:08:00,
2013-03-01 16:13:00,54.8,36.0,31.23,South,188,3.0,13.0,49,0.00,,,0.00,183.00,VWS V14.00,2013-03-01 23:13:00,
2013-03-01 16:15:00,54.7,36.4,31.24,South,191,0.0,13.0,50,0.00,,,0.00,218.00,VWS V14.00,2013-03-01 23:15:00,
2013-03-01 16:18:00,54.8,36.5,31.24,South,191,3.0,13.0,50,0.00,,,0.00,199.00,VWS V14.00,2013-03-01 23:18:00,
2013-03-01 16:23:00,54.8,36.5,31.23,WNW,296,0.0,7.0,50,0.00,,,0.00,251.00,VWS V14.00,2013-03-01 23:23:00,
2013-03-01 16:28:00,54.8,36.0,31.23,South,176,3.0,10.0,49,0.00,,,0.00,225.00,VWS V14.00,2013-03-01 23:28:00,
2013-03-01 16:30:00,54.9,36.1,31.24,SSW,206,3.0,10.0,49,0.00,,,0.00,185.00,VWS V14.00,2013-03-01 23:30:00,
2013-03-01 16:33:00,54.9,36.1,31.24,SSW,201,2.0,10.0,49,0.00,,,0.00,190.00,VWS V14.00,2013-03-01 23:33:00,
2013-03-01 16:38:00,54.8,36.0,31.23,SSW,202,2.0,6.0,49,0.00,,,0.00,171.00,VWS V14.00,2013-03-01 23:38:00,
2013-03-01 16:43:00,54.7,35.9,31.23,SSW,202,0.0,10.0,49,0.00,,,0.00,137.00,VWS V14.00,2013-03-01 23:43:00,
2013-03-01 16:45:00,54.4,36.2,31.24,SSW,202,0.0,11.0,50,0.00,,,0.00,149.00,VWS V14.00,2013-03-01 23:45:00,
2013-03-01 16:48:00,54.5,36.3,31.24,SSW,202,0.0,11.0,50,0.00,,,0.00,135.00,VWS V14.00,2013-03-01 23:48:00,
2013-03-01 16:53:00,54.2,36.5,31.25,West,263,0.0,6.0,51,0.00,,,0.00,127.00,VWS V14.00,2013-03-01 23:53:00,
2013-03-01 16:58:00,54.1,36.4,31.25,WSW,258,0.0,9.0,51,0.00,,,0.00,116.00,VWS V14.00,2013-03-01 23:58:00,
2013-03-01 17:00:00,53.9,36.2,31.25,WSW,257,0.0,9.0,51,0.00,,,0.00,84.00,VWS V14.00,2013-03-02 00:00:00,
2013-03-01 17:03:00,53.9,36.2,31.25,WSW,257,0.0,9.0,51,0.00,,,0.00,86.00,VWS V14.00,2013-03-02 00:03:00,
2013-03-01 17:08:00,53.8,36.1,31.25,WSW,257,0.0,1.0,51,0.00,,,0.00,72.00,VWS V14.00,2013-03-02 00:08:00,
2013-03-01 17:13:00,53.7,36.0,31.25,SSW,207,0.0,4.0,51,0.00,,,0.00,63.00,VWS V14.00,2013-03-02 00:13:00,
2013-03-01 17:15:00,53.5,36.8,31.25,SSW,200,2.0,4.0,53,0.00,,,0.00,53.00,VWS V14.00,2013-03-02 00:15:00,
2013-03-01 17:18:00,53.5,36.8,31.25,SSW,200,3.0,4.0,53,0.00,,,0.00,53.00,VWS V14.00,2013-03-02 00:18:00,
2013-03-01 17:23:00,53.3,36.1,31.25,South,185,1.0,5.0,52,0.00,,,0.00,46.00,VWS V14.00,2013-03-02 00:23:00,
2013-03-01 17:28:00,53.0,35.9,31.25,South,180,0.0,6.0,52,0.00,,,0.00,37.00,VWS V14.00,2013-03-02 00:28:00,
2013-03-01 17:30:00,52.8,35.7,31.26,South,182,0.0,6.0,52,0.00,,,0.00,32.00,VWS V14.00,2013-03-02 00:30:00,
2013-03-01 17:33:00,52.8,35.7,31.26,South,182,0.0,6.0,52,0.00,,,0.00,32.00,VWS V14.00,2013-03-02 00:33:00,
2013-03-01 17:38:00,52.6,36.0,31.26,South,182,0.0,3.0,53,0.00,,,0.00,30.00,VWS V14.00,2013-03-02 00:38:00,
2013-03-01 17:46:00,52.3,35.7,31.27,South,182,0.0,0.0,53,0.00,,,0.00,26.00,VWS V14.00,2013-03-02 00:46:00,
2013-03-01 17:51:00,52.1,36.0,31.27,South,182,0.0,0.0,54,0.00,,,0.00,25.00,VWS V14.00,2013-03-02 00:51:00,
2013-03-01 17:56:00,51.9,35.8,31.27,South,182,0.0,0.0,54,0.00,,,0.00,21.00,VWS V14.00,2013-03-02 00:56:00,
2013-03-01 18:01:00,51.6,36.0,31.27,South,182,0.0,0.0,55,0.00,,,0.00,23.00,VWS V14.00,2013-03-02 01:01:00,
2013-03-01 18:06:00,51.4,35.8,31.28,South,182,0.0,0.0,55,0.00,,,0.00,19.00,VWS V14.00,2013-03-02 01:06:00,
2013-03-01 18:11:00,50.9,35.8,31.28,SE,146,2.0,4.0,56,0.00,,,0.00,9.00,VWS V14.00,2013-03-02 01:11:00,
2013-03-01 18:16:00,50.6,35.5,31.28,SE,146,0.0,4.0,56,0.00,,,0.00,5.00,VWS V14.00,2013-03-02 01:16:00,
2013-03-01 18:21:00,50.4,35.8,31.28,SE,146,0.0,0.0,57,0.00,,,0.00,0.00,VWS V14.00,2013-03-02 01:21:00,
2013-03-01 18:26:00,50.0,35.8,31.28,SE,146,0.0,0.0,58,0.00,,,0.00,0.00,VWS V14.00,2013-03-02 01:26:00,
2013-03-01 18:31:00,49.5,35.8,31.27,SE,146,2.0,4.0,59,0.00,,,0.00,0.00,VWS V14.00,2013-03-02 01:31:00,
2013-03-01 18:36:00,48.9,35.6,31.28,SE,146,3.0,5.0,60,0.00,,,0.00,0.00,VWS V14.00,2013-03-02 01:36:00,
2013-03-01 18:41:00,48.2,35.0,31.28,SE,142,3.0,7.0,60,0.00,,,0.00,0.00,VWS V14.00,2013-03-02 01:41:00,
2013-03-01 18:46:00,47.8,35.0,31.28,SSE,152,3.0,7.0,61,0.00,,,0.00,0.00,VWS V14.00,2013-03-02 01:46:00,
2013-03-01 18:51:00,47.4,35.0,31.30,SSE,159,4.0,4.0,62,0.00,,,0.00,0.00,VWS V14.00,2013-03-02 01:51:00,
2013-03-01 18:56:00,47.0,34.7,31.30,SSE,160,4.0,7.0,62,0.00,,,0.00,0.00,VWS V14.00,2013-03-02 01:56:00,
2013-03-01 19:01:00,47.0,34.7,31.30,SSE,149,3.0,7.0,62,0.00,,,0.00,0.00,VWS V14.00,2013-03-02 02:01:00,
2013-03-01 19:06:00,46.6,35.1,31.29,SSE,161,3.0,7.0,64,0.00,,,0.00,0.00,VWS V14.00,2013-03-02 02:06:00,
2013-03-01 19:11:00,46.5,35.0,31.29,SSE,160,4.0,7.0,64,0.00,,,0.00,0.00,VWS V14.00,2013-03-02 02:11:00,
2013-03-01 19:16:00,46.2,34.7,31.30,SSE,151,4.0,7.0,64,0.00,,,0.00,0.00,VWS V14.00,2013-03-02 02:16:00,
2013-03-01 19:21:00,46.0,34.5,31.30,SSE,151,0.0,1.0,64,0.00,,,0.00,0.00,VWS V14.00,2013-03-02 02:21:00,
2013-03-01 19:26:00,45.6,34.5,31.30,SSE,150,3.0,4.0,65,0.00,,,0.00,0.00,VWS V14.00,2013-03-02 02:26:00,
2013-03-01 19:31:00,45.0,34.3,31.30,SSE,150,3.0,5.0,66,0.00,,,0.00,0.00,VWS V14.00,2013-03-02 02:31:00,
2013-03-01 19:36:00,44.6,34.3,31.30,SSE,150,4.0,4.0,67,0.00,,,0.00,0.00,VWS V14.00,2013-03-02 02:36:00,
2013-03-01 19:41:00,44.2,34.3,31.31,SSE,150,4.0,4.0,68,0.00,,,0.00,0.00,VWS V14.00,2013-03-02 02:41:00,
2013-03-01 19:46:00,44.0,34.1,31.31,SSE,150,4.0,4.0,68,0.00,,,0.00,0.00,VWS V14.00,2013-03-02 02:46:00,
2013-03-01 19:51:00,43.9,34.0,31.30,SSE,150,2.0,4.0,68,0.00,,,0.00,0.00,VWS V14.00,2013-03-02 02:51:00,
2013-03-01 19:56:00,43.8,34.3,31.30,SSE,150,2.0,4.0,69,0.00,,,0.00,0.00,VWS V14.00,2013-03-02 02:56:00,
2013-03-01 20:01:00,43.7,34.2,31.31,SSE,150,3.0,5.0,69,0.00,,,0.00,0.00,VWS V14.00,2013-03-02 03:01:00,
2013-03-01 20:06:00,43.5,34.0,31.28,SSE,150,2.0,4.0,69,0.00,,,0.00,0.00,VWS V14.00,2013-03-02 03:06:00,
2013-03-01 20:11:00,43.4,34.3,31.29,SSE,150,4.0,4.0,70,0.00,,,0.00,0.00,VWS V14.00,2013-03-02 03:11:00,
2013-03-01 20:16:00,43.5,34.4,31.28,SSE,150,2.0,5.0,70,0.00,,,0.00,0.00,VWS V14.00,2013-03-02 03:16:00,
2013-03-01 20:21:00,43.4,33.9,31.29,SSE,150,2.0,4.0,69,0.00,,,0.00,0.00,VWS V14.00,2013-03-02 03:21:00,
2013-03-01 20:26:00,43.2,33.7,31.29,SSE,150,0.0,4.0,69,0.00,,,0.00,0.00,VWS V14.00,2013-03-02 03:26:00,
2013-03-01 20:31:00,42.9,33.8,31.29,SSE,150,3.0,4.0,70,0.00,,,0.00,0.00,VWS V14.00,2013-03-02 03:31:00,
2013-03-01 20:36:00,42.4,33.7,31.28,SSE,150,4.0,5.0,71,0.00,,,0.00,0.00,VWS V14.00,2013-03-02 03:36:00,
2013-03-01 20:41:00,42.1,33.4,31.28,SSE,150,1.0,5.0,71,0.00,,,0.00,0.00,VWS V14.00,2013-03-02 03:41:00,
2013-03-01 20:46:00,41.8,33.5,31.28,SSE,150,2.0,5.0,72,0.00,,,0.00,0.00,VWS V14.00,2013-03-02 03:46:00,
2013-03-01 20:51:00,41.6,33.6,31.28,South,183,2.0,5.0,73,0.00,,,0.00,0.00,VWS V14.00,2013-03-02 03:51:00,
2013-03-01 20:56:00,41.4,33.4,31.30,South,183,1.0,5.0,73,0.00,,,0.00,0.00,VWS V14.00,2013-03-02 03:56:00,
2013-03-01 21:01:00,41.1,33.5,31.29,South,183,1.0,5.0,74,0.00,,,0.00,0.00,VWS V14.00,2013-03-02 04:01:00,
2013-03-01 21:06:00,40.9,33.6,31.26,South,183,2.0,3.0,75,0.00,,,0.00,0.00,VWS V14.00,2013-03-02 04:06:00,
2013-03-01 21:11:00,40.7,33.4,31.26,South,183,2.0,3.0,75,0.00,,,0.00,0.00,VWS V14.00,2013-03-02 04:11:00,
2013-03-01 21:16:00,40.7,33.1,31.26,South,183,3.0,4.0,74,0.00,,,0.00,0.00,VWS V14.00,2013-03-02 04:16:00,
2013-03-01 21:21:00,40.7,33.1,31.26,South,182,3.0,4.0,74,0.00,,,0.00,0.00,VWS V14.00,2013-03-02 04:21:00,
2013-03-01 21:26:00,40.5,32.9,31.25,South,182,0.0,4.0,74,0.00,,,0.00,0.00,VWS V14.00,2013-03-02 04:26:00,
2013-03-01 21:31:00,40.3,33.0,31.25,South,182,3.0,4.0,75,0.00,,,0.00,0.00,VWS V14.00,2013-03-02 04:31:00,
2013-03-01 21:36:00,40.2,32.9,31.25,South,178,4.0,5.0,75,0.00,,,0.00,0.00,VWS V14.00,2013-03-02 04:36:00,
2013-03-01 21:41:00,39.8,32.5,31.25,SSE,153,3.0,6.0,75,0.00,,,0.00,0.00,VWS V14.00,2013-03-02 04:41:00,
2013-03-01 21:46:00,39.6,32.7,31.25,SSE,168,5.0,10.0,76,0.00,,,0.00,0.00,VWS V14.00,2013-03-02 04:46:00,
2013-03-01 21:51:00,39.8,32.5,31.25,SSE,159,3.0,5.0,75,0.00,,,0.00,0.00,VWS V14.00,2013-03-02 04:51:00,
2013-03-01 21:56:00,39.7,32.4,31.25,SSE,159,4.0,5.0,75,0.00,,,0.00,0.00,VWS V14.00,2013-03-02 04:56:00,
2013-03-01 22:00:00,39.7,32.1,31.24,SSE,155,4.0,5.0,74,0.00,,,0.00,0.00,VWS V14.00,2013-03-02 05:00:00,
2013-03-01 22:05:00,39.7,32.4,31.22,SE,142,4.0,6.0,75,0.00,,,0.00,0.00,VWS V14.00,2013-03-02 05:05:00,
2013-03-01 22:10:00,40.1,32.8,31.21,SSE,155,5.0,7.0,75,0.00,,,0.00,0.00,VWS V14.00,2013-03-02 05:10:00,
2013-03-01 22:15:00,40.7,33.1,31.20,SSE,161,4.0,8.0,74,0.00,,,0.00,0.00,VWS V14.00,2013-03-02 05:15:00,
2013-03-01 22:20:00,40.8,32.8,31.21,SSE,162,3.0,4.0,73,0.00,,,0.00,0.00,VWS V14.00,2013-03-02 05:20:00,
2013-03-01 22:25:00,40.5,31.9,31.21,SSE,162,2.0,4.0,71,0.00,,,0.00,0.00,VWS V14.00,2013-03-02 05:25:00,
2013-03-01 22:30:00,40.1,32.5,31.22,SSE,161,4.0,5.0,74,0.00,,,0.00,0.00,VWS V14.00,2013-03-02 05:30:00,
2013-03-01 22:35:00,39.9,32.6,31.21,SSE,163,3.0,4.0,75,0.00,,,0.00,0.00,VWS V14.00,2013-03-02 05:35:00,
2013-03-01 22:40:00,39.8,32.5,31.22,SSE,162,2.0,5.0,75,0.00,,,0.00,0.00,VWS V14.00,2013-03-02 05:40:00,
2013-03-01 22:45:00,39.8,32.5,31.22,SSE,161,4.0,6.0,75,0.00,,,0.00,0.00,VWS V14.00,2013-03-02 05:45:00,
2013-03-01 22:50:00,39.8,32.5,31.22,SSE,159,3.0,5.0,75,0.00,,,0.00,0.00,VWS V14.00,2013-03-02 05:50:00,
2013-03-01 22:55:00,39.6,32.0,31.22,SSE,153,4.0,6.0,74,0.00,,,0.00,0.00,VWS V14.00,2013-03-02 05:55:00,
2013-03-01 23:00:00,39.3,32.0,31.22,SE,144,6.0,7.0,75,0.00,,,0.00,0.00,VWS V14.00,2013-03-02 06:00:00,
2013-03-01 23:05:00,39.1,31.9,31.22,SE,145,5.0,8.0,75,0.00,,,0.00,0.00,VWS V14.00,2013-03-02 06:05:00,
2013-03-01 23:11:00,38.9,32.0,31.22,SSE,152,5.0,8.0,76,0.00,,,0.00,0.00,VWS V14.00,2013-03-02 06:11:00,
2013-03-01 23:15:00,38.8,31.9,31.22,SSE,155,4.0,8.0,76,0.00,,,0.00,0.00,VWS V14.00,2013-03-02 06:15:00,
2013-03-01 23:21:00,38.9,32.0,31.22,SSE,161,3.0,5.0,76,0.00,,,0.00,0.00,VWS V14.00,2013-03-02 06:21:00,
2013-03-01 23:25:00,38.9,32.0,31.22,SSE,163,3.0,5.0,76,0.00,,,0.00,0.00,VWS V14.00,2013-03-02 06:25:00,
2013-03-01 23:30:00,39.0,31.8,31.22,SSE,163,4.0,6.0,75,0.00,,,0.00,0.00,VWS V14.00,2013-03-02 06:30:00,
2013-03-01 23:35:00,39.0,31.4,31.22,SSE,165,3.0,4.0,74,0.00,,,0.00,0.00,VWS V14.00,2013-03-02 06:35:00,
2013-03-01 23:40:00,38.8,31.6,31.22,SSE,168,2.0,5.0,75,0.00,,,0.00,0.00,VWS V14.00,2013-03-02 06:40:00,
2013-03-01 23:45:00,38.4,31.5,31.22,South,170,2.0,5.0,76,0.00,,,0.00,0.00,VWS V14.00,2013-03-02 06:45:00,
2013-03-01 23:50:00,38.0,31.1,31.23,South,170,0.0,0.0,76,0.00,,,0.00,0.00,VWS V14.00,2013-03-02 06:50:00,
2013-03-01 23:55:00,37.7,31.1,31.22,South,170,3.0,4.0,77,0.00,,,0.00,0.00,VWS V14.00,2013-03-02 06:55:00,